Map

Track Data

SID SEASON NUMBER BASIN SUBBASIN NAME ISO_TIME NATURE LAT LON WMO_WIND WMO_PRES WMO_AGENCY TRACK_TYPE DIST2LAND LANDFALL IFLAG USA_AGENCY USA_ATCF_ID USA_LAT USA_LON USA_RECORD USA_STATUS USA_WIND USA_PRES USA_SSHS USA_R34_NE USA_R34_SE USA_R34_SW USA_R34_NW USA_R50_NE USA_R50_SE USA_R50_SW USA_R50_NW USA_R64_NE USA_R64_SE USA_R64_SW USA_R64_NW USA_POCI USA_ROCI USA_RMW USA_EYE TOKYO_LAT TOKYO_LON TOKYO_GRADE TOKYO_WIND TOKYO_PRES TOKYO_R50_DIR TOKYO_R50_LONG TOKYO_R50_SHORT TOKYO_R30_DIR TOKYO_R30_LONG TOKYO_R30_SHORT TOKYO_LAND CMA_LAT CMA_LON CMA_CAT CMA_WIND CMA_PRES HKO_LAT HKO_LON HKO_CAT HKO_WIND HKO_PRES NEWDELHI_LAT NEWDELHI_LON NEWDELHI_GRADE NEWDELHI_WIND NEWDELHI_PRES NEWDELHI_CI NEWDELHI_DP NEWDELHI_POCI REUNION_LAT REUNION_LON REUNION_TYPE REUNION_WIND REUNION_PRES REUNION_TNUM REUNION_CI REUNION_RMW REUNION_R34_NE REUNION_R34_SE REUNION_R34_SW REUNION_R34_NW REUNION_R50_NE REUNION_R50_SE REUNION_R50_SW REUNION_R50_NW REUNION_R64_NE REUNION_R64_SE REUNION_R64_SW REUNION_R64_NW BOM_LAT BOM_LON BOM_TYPE BOM_WIND BOM_PRES BOM_TNUM BOM_CI BOM_RMW BOM_R34_NE BOM_R34_SE BOM_R34_SW BOM_R34_NW BOM_R50_NE BOM_R50_SE BOM_R50_SW BOM_R50_NW BOM_R64_NE BOM_R64_SE BOM_R64_SW BOM_R64_NW BOM_ROCI BOM_POCI BOM_EYE BOM_POS_METHOD BOM_PRES_METHOD NADI_LAT NADI_LON NADI_CAT NADI_WIND NADI_PRES WELLINGTON_LAT WELLINGTON_LON WELLINGTON_WIND WELLINGTON_PRES DS824_LAT DS824_LON DS824_STAGE DS824_WIND DS824_PRES TD9636_LAT TD9636_LON TD9636_STAGE TD9636_WIND TD9636_PRES TD9635_LAT TD9635_LON TD9635_WIND TD9635_PRES TD9635_ROCI NEUMANN_LAT NEUMANN_LON NEUMANN_CLASS NEUMANN_WIND NEUMANN_PRES MLC_LAT MLC_LON MLC_CLASS MLC_WIND MLC_PRES USA_GUST BOM_GUST BOM_GUST_PER REUNION_GUST REUNION_GUST_PER USA_SEAHGT USA_SEARAD_NE USA_SEARAD_SE USA_SEARAD_SW USA_SEARAD_NW STORM_SPEED STORM_DIR
1936209N24286 1936 30 NA NA NOT_NAMED 1936-07-27 06:00:00 TS 23.6000 -74.0000 30 hurdat_atl main 280 280 O_____________ hurdat_atl AL051936 23.6000 -74.0000 TD 30 -1 8 284
1936209N24286 1936 30 NA NA NOT_NAMED 1936-07-27 09:00:00 TS 23.7003 -74.4499 main 299 294 P_____________ AL051936 23.7003 -74.4499 TD 30 -1 8 284
1936209N24286 1936 30 NA NA NOT_NAMED 1936-07-27 12:00:00 TS 23.8000 -74.9000 30 hurdat_atl main 294 252 O_____________ hurdat_atl AL051936 23.8000 -74.9000 TD 30 -1 8 284
1936209N24286 1936 30 NA NA NOT_NAMED 1936-07-27 15:00:00 TS 23.8999 -75.3501 main 242 200 P_____________ AL051936 23.8999 -75.3501 TD 32 -1 8 284
1936209N24286 1936 30 NA NA NOT_NAMED 1936-07-27 18:00:00 TS 24.0000 -75.8000 35 hurdat_atl main 200 158 O_____________ hurdat_atl AL051936 24.0000 -75.8000 TS 35 0 8 284
1936209N24286 1936 30 NA NA NOT_NAMED 1936-07-27 21:00:00 TS 24.0998 -76.2426 main 158 106 P_____________ AL051936 24.0998 -76.2426 TS 35 0 8 284
1936209N24286 1936 30 NA NA NOT_NAMED 1936-07-28 00:00:00 TS 24.2000 -76.7000 35 hurdat_atl main 106 55 O_____________ hurdat_atl AL051936 24.2000 -76.7000 TS 35 0 9 283
1936209N24286 1936 30 NA NA NOT_NAMED 1936-07-28 03:00:00 TS 24.2924 -77.1926 main 55 11 P_____________ AL051936 24.2924 -77.1926 TS 37 0 9 282
1936209N24286 1936 30 NA NA NOT_NAMED 1936-07-28 06:00:00 TS 24.4000 -77.7000 40 hurdat_atl main 11 0 O_____________ hurdat_atl AL051936 24.4000 -77.7000 TS 40 0 10 285
1936209N24286 1936 30 NA NA NOT_NAMED 1936-07-28 09:00:00 TS 24.5500 -78.2224 main 0 0 P_____________ AL051936 24.5500 -78.2224 TS 42 0 10 288
1936209N24286 1936 30 NA NA NOT_NAMED 1936-07-28 12:00:00 TS 24.7000 -78.7000 45 hurdat_atl main 23 23 O_____________ hurdat_atl AL051936 24.7000 -78.7000 TS 45 0 8 288
1936209N24286 1936 30 NA NA NOT_NAMED 1936-07-28 15:00:00 TS 24.7997 -79.0727 main 64 64 P_____________ AL051936 24.7997 -79.0727 TS 47 0 7 287
1936209N24286 1936 30 NA NA NOT_NAMED 1936-07-28 18:00:00 TS 24.9000 -79.4000 50 hurdat_atl main 96 71 O_____________ hurdat_atl AL051936 24.9000 -79.4000 TS 50 0 7 291
1936209N24286 1936 30 NA NA NOT_NAMED 1936-07-28 21:00:00 TS 25.0435 -79.7616 main 61 30 P_____________ AL051936 25.0435 -79.7616 TS 52 0 7 295
1936209N24286 1936 30 NA NA NOT_NAMED 1936-07-29 00:00:00 TS 25.2000 -80.1000 55 995 hurdat_atl main 30 10 O_____________ hurdat_atl AL051936 25.2000 -80.1000 TS 55 995 0 7 298
1936209N24286 1936 30 NA NA NOT_NAMED 1936-07-29 02:00:00 TS 25.3000 -80.3000 55 995 hurdat_atl main 10 0 O_____________ hurdat_atl AL051936 25.3000 -80.3000 L TS 55 995 0 7 298
1936209N24286 1936 30 NA NA NOT_NAMED 1936-07-29 03:00:00 TS 25.3659 -80.4475 main 0 0 P_____________ AL051936 25.3659 -80.4475 TS 53 0 11 295
1936209N24286 1936 30 NA NA NOT_NAMED 1936-07-29 06:00:00 TS 25.6000 -81.0000 50 hurdat_atl main 0 0 O_____________ hurdat_atl AL051936 25.6000 -81.0000 TS 50 0 10 296
1936209N24286 1936 30 NA GM NOT_NAMED 1936-07-29 09:00:00 TS 25.8043 -81.4639 main 11 0 P_____________ AL051936 25.8043 -81.4639 TS 52 0 9 296
1936209N24286 1936 30 NA GM NOT_NAMED 1936-07-29 12:00:00 TS 26.0000 -81.9000 55 hurdat_atl main 14 14 O_____________ hurdat_atl AL051936 26.0000 -81.9000 TS 55 0 9 296
1936209N24286 1936 30 NA GM NOT_NAMED 1936-07-29 15:00:00 TS 26.1999 -82.3576 main 52 52 P_____________ AL051936 26.1999 -82.3576 TS 55 0 9 296
1936209N24286 1936 30 NA GM NOT_NAMED 1936-07-29 18:00:00 TS 26.4000 -82.8000 55 hurdat_atl main 66 66 O_____________ hurdat_atl AL051936 26.4000 -82.8000 TS 55 0 9 297
1936209N24286 1936 30 NA GM NOT_NAMED 1936-07-29 21:00:00 TS 26.5924 -83.2152 main 92 92 P_____________ AL051936 26.5924 -83.2152 TS 57 0 8 299
1936209N24286 1936 30 NA GM NOT_NAMED 1936-07-30 00:00:00 TS 26.8000 -83.6000 60 hurdat_atl main 113 113 O_____________ hurdat_atl AL051936 26.8000 -83.6000 TS 60 0 8 304
1936209N24286 1936 30 NA GM NOT_NAMED 1936-07-30 03:00:00 TS 27.0424 -83.9576 main 142 140 P_____________ AL051936 27.0424 -83.9576 TS 60 0 8 309
1936209N24286 1936 30 NA GM NOT_NAMED 1936-07-30 06:00:00 TS 27.3000 -84.3000 60 hurdat_atl main 153 153 O_____________ hurdat_atl AL051936 27.3000 -84.3000 TS 60 0 8 309
1936209N24286 1936 30 NA GM NOT_NAMED 1936-07-30 09:00:00 TS 27.5500 -84.6651 main 180 180 P_____________ AL051936 27.5500 -84.6651 TS 62 0 8 309
1936209N24286 1936 30 NA GM NOT_NAMED 1936-07-30 12:00:00 TS 27.8000 -85.0000 65 hurdat_atl main 206 189 O_____________ hurdat_atl AL051936 27.8000 -85.0000 HU 65 1 7 312
1936209N24286 1936 30 NA GM NOT_NAMED 1936-07-30 15:00:00 TS 28.0424 -85.2727 main 189 156 P_____________ AL051936 28.0424 -85.2727 HU 67 1 7 319
1936209N24286 1936 30 NA GM NOT_NAMED 1936-07-30 18:00:00 TS 28.3000 -85.5000 70 hurdat_atl main 156 126 O_____________ hurdat_atl AL051936 28.3000 -85.5000 HU 70 1 7 325
1936209N24286 1936 30 NA GM NOT_NAMED 1936-07-30 21:00:00 TS 28.5925 -85.7151 main 126 101 P_____________ AL051936 28.5925 -85.7151 HU 75 1 7 330
1936209N24286 1936 30 NA GM NOT_NAMED 1936-07-31 00:00:00 TS 28.9000 -85.9000 80 hurdat_atl main 101 80 O_____________ hurdat_atl AL051936 28.9000 -85.9000 HU 80 1 7 334
1936209N24286 1936 30 NA GM NOT_NAMED 1936-07-31 03:00:00 TS 29.2000 -86.0576 main 87 75 P_____________ AL051936 29.2000 -86.0576 HU 82 1 7 336
1936209N24286 1936 30 NA GM NOT_NAMED 1936-07-31 06:00:00 TS 29.5000 -86.2000 85 hurdat_atl main 80 67 O_____________ hurdat_atl AL051936 29.5000 -86.2000 HU 85 2 6 336
1936209N24286 1936 30 NA GM NOT_NAMED 1936-07-31 09:00:00 TS 29.7651 -86.3502 main 62 34 P_____________ AL051936 29.7651 -86.3502 HU 87 2 7 337
1936209N24286 1936 30 NA GM NOT_NAMED 1936-07-31 12:00:00 TS 30.1000 -86.5000 90 964 hurdat_atl main 34 0 O_____________ hurdat_atl AL051936 30.1000 -86.5000 HU 90 964 2 8 341
1936209N24286 1936 30 NA GM NOT_NAMED 1936-07-31 14:00:00 TS 30.4000 -86.6000 90 964 hurdat_atl main 0 0 O_____________ hurdat_atl AL051936 30.4000 -86.6000 L HU 90 964 2 9 341
1936209N24286 1936 30 NA NA NOT_NAMED 1936-07-31 15:00:00 TS 30.5201 -86.6659 main 0 0 P_____________ AL051936 30.5201 -86.6659 HU 85 2 7 327
1936209N24286 1936 30 NA NA NOT_NAMED 1936-07-31 18:00:00 TS 30.8000 -86.9000 70 hurdat_atl main 0 0 O_____________ hurdat_atl AL051936 30.8000 -86.9000 HU 70 1 7 328
1936209N24286 1936 30 NA NA NOT_NAMED 1936-07-31 21:00:00 TS 31.1141 -87.1046 main 0 0 P_____________ AL051936 31.1141 -87.1046 HU 60 0 7 330
1936209N24286 1936 30 NA NA NOT_NAMED 1936-08-01 00:00:00 TS 31.4000 -87.3000 50 hurdat_atl main 0 0 O_____________ hurdat_atl AL051936 31.4000 -87.3000 TS 50 0 6 326
1936209N24286 1936 30 NA NA NOT_NAMED 1936-08-01 03:00:00 TS 31.6300 -87.5076 main 0 0 P_____________ AL051936 31.6300 -87.5076 TS 45 0 5 320
1936209N24286 1936 30 NA NA NOT_NAMED 1936-08-01 06:00:00 TS 31.8000 -87.7000 40 hurdat_atl main 0 0 O_____________ hurdat_atl AL051936 31.8000 -87.7000 TS 40 0 4 314
1936209N24286 1936 30 NA NA NOT_NAMED 1936-08-01 09:00:00 TS 31.9150 -87.8600 main 0 0 P_____________ AL051936 31.9150 -87.8600 TS 35 0 3 308
1936209N24286 1936 30 NA NA NOT_NAMED 1936-08-01 12:00:00 TS 32.0000 -88.0000 30 hurdat_atl main 0 O_____________ hurdat_atl AL051936 32.0000 -88.0000 TD 30 -1 3 305

About IBTrACS Database

This database is a web-friendly format of International Best Track Archive for Climate Stewardship (IBTrACS), a global best track data archive curated by NOAA dating back to 1842.

Updated: 2021-10-08